Time;durP1;ratioP1;P1;durP2;ratioP2;P2;SDS_P1;SDS_P2;PMS_P1;PMS_P2;Temp;Humidity;BMP_temperature;BMP_pressure;BME280_temperature;BME280_humidity;BME280_pressure;Samples;Min_cycle;Max_cycle;Signal;HPM_P1;HPM_P2
2022/06/03 00:00:43;;;;;;;18.23;12.93;;;;;;;23.38;59.57;101406.94;4954979;29;20024;-87
2022/06/03 00:03:20;;;;;;;17.05;13.05;;;;;;;23.39;59.83;101410.41;4937912;29;20098;-87
2022/06/03 00:06:02;;;;;;;21.23;13.35;;;;;;;23.37;59.97;101412.34;4954906;28;20031;-88
2022/06/03 00:09:07;;;;;;;18.25;12.95;;;;;;;23.27;60.63;101411.53;4937893;29;20042;-87
2022/06/03 00:11:45;;;;;;;18.92;12.90;;;;;;;23.17;60.76;101399.16;4954268;29;20031;-89
2022/06/03 00:14:52;;;;;;;15.80;12.90;;;;;;;23.19;61.00;101417.47;4953884;29;20183;-87
2022/06/03 00:17:44;;;;;;;14.70;12.95;;;;;;;22.99;61.40;101413.16;4954559;28;20039;-87
2022/06/03 00:20:28;;;;;;;22.10;13.73;;;;;;;23.03;61.74;101439.16;4954065;28;20495;-88
2022/06/03 00:23:06;;;;;;;21.63;14.35;;;;;;;22.92;61.86;101426.06;4954445;29;20476;-87
2022/06/03 00:25:31;;;;;;;20.40;13.57;;;;;;;23.00;61.82;101433.28;4954845;29;20038;-87
2022/06/03 00:28:15;;;;;;;15.90;12.93;;;;;;;22.90;61.99;101433.25;4953581;29;20027;-87
2022/06/03 00:30:51;;;;;;;20.88;13.95;;;;;;;22.82;62.24;101419.91;4954663;28;20026;-87
2022/06/03 00:33:32;;;;;;;18.60;13.63;;;;;;;22.85;62.13;101427.56;4953418;29;20035;-87
2022/06/03 00:36:00;;;;;;;17.05;13.52;;;;;;;22.83;62.14;101430.31;4954777;29;20065;-87
2022/06/03 00:38:48;;;;;;;16.65;13.63;;;;;;;22.74;62.29;101417.09;4953356;29;20489;-86
2022/06/03 00:41:19;;;;;;;20.75;13.77;;;;;;;22.79;62.51;101426.25;4939386;29;20058;-87
2022/06/03 00:43:51;;;;;;;20.00;14.07;;;;;;;22.70;62.45;101421.78;4953433;29;20090;-87
2022/06/03 00:46:31;;;;;;;18.33;13.97;;;;;;;22.65;62.95;101428.47;4953742;29;20795;-87
2022/06/03 00:49:02;;;;;;;19.80;13.90;;;;;;;22.52;63.27;101426.88;4953872;28;20035;-87
2022/06/03 00:51:37;;;;;;;20.90;15.25;;;;;;;22.18;63.54;101397.31;4952131;29;20031;-86
2022/06/03 00:54:34;;;;;;;22.52;15.30;;;;;;;22.28;64.08;101405.25;4953137;28;20129;-87
2022/06/03 00:57:46;;;;;;;21.05;15.18;;;;;;;22.35;63.97;101427.50;4953289;29;20111;-87
2022/06/03 01:00:12;;;;;;;;;;;;;;;22.36;64.10;101426.53;4937895;29;20579;-88
2022/06/03 01:02:37;;;;;;;17.60;14.65;;;;;;;22.25;63.99;101419.56;4953913;29;19954;-88
2022/06/03 01:05:11;;;;;;;20.63;15.57;;;;;;;22.27;63.90;101408.88;4954207;28;20038;-88
2022/06/03 01:07:50;;;;;;;21.30;15.50;;;;;;;22.17;64.06;101398.28;4952586;29;20035;-88
2022/06/03 01:10:56;;;;;;;20.58;15.40;;;;;;;22.20;63.85;101403.28;4953071;29;20031;-87
2022/06/03 01:13:33;;;;;;;24.35;18.73;;;;;;;22.19;64.04;101422.69;4937023;29;20023;-87
2022/06/03 01:16:12;;;;;;;23.88;18.08;;;;;;;22.10;64.29;101417.38;4953674;28;20097;-88
2022/06/03 01:18:56;;;;;;;22.85;17.27;;;;;;;22.11;64.55;101424.31;4952812;29;20027;-87
2022/06/03 01:21:47;;;;;;;49.30;28.65;;;;;;;22.18;64.67;101433.38;4936608;29;20493;-87
2022/06/03 01:24:24;;;;;;;37.95;25.48;;;;;;;22.24;64.70;101427.59;4936474;29;20412;-87
2022/06/03 01:27:33;;;;;;;29.20;20.73;;;;;;;22.22;65.04;101427.72;4952249;29;20101;-87
2022/06/03 01:30:16;;;;;;;21.02;16.23;;;;;;;22.21;64.45;101433.09;4942833;29;20524;-87
2022/06/03 01:32:52;;;;;;;21.35;16.40;;;;;;;22.17;64.85;101421.16;4952444;29;20780;-87
2022/06/03 01:36:00;;;;;;;21.27;16.05;;;;;;;22.13;64.96;101431.16;4952575;29;20114;-88
2022/06/03 01:39:01;;;;;;;23.85;15.50;;;;;;;22.15;64.99;101421.31;4952457;29;20456;-86
2022/06/03 01:41:48;;;;;;;22.08;16.08;;;;;;;22.12;65.15;101432.09;4952367;29;20023;-86
2022/06/03 01:44:31;;;;;;;26.15;16.95;;;;;;;22.05;64.97;101426.50;4953296;28;20023;-87
2022/06/03 01:47:15;;;;;;;20.45;16.38;;;;;;;21.98;64.97;101427.97;4951305;29;20055;-86
2022/06/03 01:50:11;;;;;;;23.38;16.73;;;;;;;22.01;65.04;101429.50;4953478;29;20036;-87
2022/06/03 01:52:58;;;;;;;25.33;17.52;;;;;;;21.90;65.39;101430.41;4953136;28;20143;-87
2022/06/03 01:55:44;;;;;;;24.13;17.70;;;;;;;21.88;65.70;101427.06;4953001;28;20476;-88
2022/06/03 01:58:48;;;;;;;22.52;17.88;;;;;;;21.81;65.86;101433.81;4951752;28;20656;-86
2022/06/03 02:01:45;;;;;;;23.30;16.92;;;;;;;21.66;66.32;101424.56;4951383;28;20444;-88
2022/06/03 02:04:42;;;;;;;22.58;16.92;;;;;;;21.75;65.96;101434.34;4951851;29;20062;-88
2022/06/03 02:07:26;;;;;;;28.52;17.25;;;;;;;21.79;66.14;101441.00;4935553;29;20524;-87
2022/06/03 02:09:54;;;;;;;25.00;17.63;;;;;;;21.82;66.32;101445.16;4951854;29;20046;-87
2022/06/03 02:12:46;;;;;;;25.88;17.33;;;;;;;21.78;66.56;101444.59;4953033;28;20066;-86
2022/06/03 02:15:18;;;;;;;26.75;17.98;;;;;;;21.72;66.37;101448.56;4935486;29;20031;-87
2022/06/03 02:18:18;;;;;;;21.27;17.48;;;;;;;21.68;66.47;101448.97;4951847;29;20039;-86
2022/06/03 02:21:17;;;;;;;22.48;18.08;;;;;;;21.72;66.67;101451.19;4952764;28;20036;-87
2022/06/03 02:23:45;;;;;;;26.23;17.30;;;;;;;21.65;66.64;101449.22;4952924;29;20035;-88
2022/06/03 02:26:44;;;;;;;21.52;17.30;;;;;;;21.64;66.73;101452.81;4952711;28;20028;-86
2022/06/03 02:32:40;;;;;;;29.65;18.08;;;;;;;21.66;66.87;101453.53;4952480;29;20461;-87
2022/06/03 02:35:23;;;;;;;23.38;18.02;;;;;;;21.58;66.89;101437.53;4952586;28;20483;-86
2022/06/03 02:37:55;;;;;;;28.95;17.95;;;;;;;21.71;66.40;101451.34;4920909;29;20601;-86
2022/06/03 02:40:49;;;;;;;23.43;18.73;;;;;;;21.47;66.55;101431.34;4952805;28;20038;-85
2022/06/03 02:43:46;;;;;;;23.73;17.67;;;;;;;21.60;66.87;101456.66;4943151;29;20039;-85
2022/06/03 02:46:28;;;;;;;26.60;17.08;;;;;;;21.46;67.43;101458.63;4952234;28;20078;-88
2022/06/03 02:49:09;;;;;;;;;;;;;;;21.42;67.50;101459.81;4952064;29;20481;-88
2022/06/03 02:52:22;;;;;;;24.38;17.95;;;;;;;21.35;67.20;101453.41;4952460;29;19966;-88
2022/06/03 02:54:50;;;;;;;23.95;16.98;;;;;;;21.51;66.79;101452.13;4950239;29;20066;-89
2022/06/03 02:57:41;;;;;;;24.55;17.30;;;;;;;21.59;66.14;101460.25;4950896;29;20516;-89
2022/06/03 03:00:17;;;;;;;24.65;17.45;;;;;;;21.75;65.76;101427.25;4951570;29;20031;-89
2022/06/03 03:03:07;;;;;;;21.83;15.45;;;;;;;22.22;64.43;101451.44;4951522;29;20023;-89
2022/06/03 03:05:54;;;;;;;23.92;16.73;;;;;;;22.53;63.33;101452.28;4952133;28;20042;-89
2022/06/03 03:08:39;;;;;;;23.35;15.70;;;;;;;22.72;62.32;101453.34;4952259;29;20515;-89
2022/06/03 03:11:23;;;;;;;21.35;16.25;;;;;;;22.77;62.22;101461.66;4935387;29;20034;-90
2022/06/03 03:13:57;;;;;;;21.35;16.45;;;;;;;22.65;63.39;101460.94;4953346;28;20028;-89
2022/06/03 03:17:01;;;;;;;29.13;17.23;;;;;;;22.50;63.39;101462.25;4954993;29;20122;-89
2022/06/03 03:19:41;;;;;;;27.27;16.85;;;;;;;22.36;62.94;101463.44;4953905;28;20468;-88
2022/06/03 03:22:25;;;;;;;89.10;21.17;;;;;;;22.14;63.88;101472.34;4956008;28;20035;-89
2022/06/03 03:25:03;;;;;;;23.48;16.98;;;;;;;22.20;63.91;101474.44;4955083;29;20034;-88
2022/06/03 03:27:46;;;;;;;25.55;18.05;;;;;;;22.10;64.17;101475.34;4955551;29;20413;-89
2022/06/03 03:30:18;;;;;;;25.15;17.42;;;;;;;22.02;64.69;101468.91;4955336;29;20109;-89
2022/06/03 03:33:21;;;;;;;29.13;17.37;;;;;;;22.09;64.58;101473.69;4955264;29;20027;-89
2022/06/03 03:36:24;;;;;;;22.75;17.83;;;;;;;22.06;64.56;101461.56;4948979;28;20031;-86
2022/06/03 03:39:11;;;;;;;27.52;17.65;;;;;;;22.20;64.30;101478.88;4947893;29;20409;-87
2022/06/03 03:41:48;;;;;;;24.05;17.83;;;;;;;22.01;64.61;101467.22;4946395;29;20042;-88
2022/06/03 03:44:26;;;;;;;25.90;17.17;;;;;;;21.97;64.72;101472.88;4946961;29;20051;-88
2022/06/03 03:47:11;;;;;;;24.08;18.30;;;;;;;22.04;64.45;101476.69;4946633;29;20051;-87
2022/06/03 03:49:47;;;;;;;21.73;16.55;;;;;;;22.17;63.98;101465.97;4947890;28;20042;-86
2022/06/03 03:52:34;;;;;;;23.40;17.95;;;;;;;22.38;63.66;101501.03;4946019;29;20090;-86
2022/06/03 03:55:27;;;;;;;24.95;16.92;;;;;;;22.42;63.68;101499.84;4946593;29;20433;-86
2022/06/03 03:58:30;;;;;;;27.98;18.65;;;;;;;22.29;63.57;101492.13;4945952;29;20053;-87
2022/06/03 04:00:59;;;;;;;29.55;18.77;;;;;;;22.21;63.96;101496.34;4917453;29;20513;-86
2022/06/03 04:03:49;;;;;;;28.85;18.60;;;;;;;22.30;63.60;101506.13;4946163;29;20039;-85
2022/06/03 04:06:39;;;;;;;26.83;18.23;;;;;;;22.22;64.22;101508.56;4947652;29;20114;-86
2022/06/03 04:09:19;;;;;;;28.40;19.30;;;;;;;22.18;64.29;101515.91;4946569;29;20030;-86
2022/06/03 04:12:03;;;;;;;25.70;18.98;;;;;;;22.12;64.28;101512.94;4952156;29;20031;-87
2022/06/03 04:14:53;;;;;;;26.85;18.15;;;;;;;22.19;64.57;101522.00;4954372;28;20035;-86
2022/06/03 04:17:37;;;;;;;28.23;18.73;;;;;;;22.18;64.17;101520.34;4953454;29;20135;-86
2022/06/03 04:20:17;;;;;;;28.45;18.92;;;;;;;22.17;64.57;101524.78;4955133;28;20038;-88
2022/06/03 04:23:01;;;;;;;24.75;19.70;;;;;;;22.08;64.73;101536.09;4953535;29;20095;-88
2022/06/03 04:25:48;;;;;;;25.88;19.40;;;;;;;22.12;64.76;101537.50;4952532;28;20027;-90
2022/06/03 04:28:32;;;;;;;27.85;20.90;;;;;;;22.05;64.61;101526.63;4953829;29;20035;-88
2022/06/03 04:31:35;;;;;;;25.48;19.17;;;;;;;22.14;64.51;101540.03;4954215;29;20130;-91
2022/06/03 04:34:13;;;;;;;31.27;19.77;;;;;;;22.38;63.88;101543.22;4955314;28;20038;-90
2022/06/03 04:37:09;;;;;;;25.33;18.65;;;;;;;22.51;63.65;101543.00;4954787;28;20031;-92
2022/06/03 04:39:56;;;;;;;34.28;23.08;;;;;;;22.56;63.50;101552.22;4959379;29;20110;-93
2022/06/03 04:42:59;;;;;;;30.75;22.00;;;;;;;22.64;63.34;101553.38;4954421;29;20024;-90
2022/06/03 04:45:36;;;;;;;29.30;20.08;;;;;;;22.68;63.00;101552.13;4953652;28;20576;-90
2022/06/03 04:48:39;;;;;;;30.40;19.50;;;;;;;22.74;62.50;101552.47;4954128;28;20055;-88
2022/06/03 04:51:42;;;;;;;26.55;19.85;;;;;;;22.75;62.65;101558.56;4954253;28;20106;-90
2022/06/03 04:54:16;;;;;;;;;;;;;;;22.81;62.80;101563.31;4953980;29;20031;-90
2022/06/03 04:56:55;;;;;;;35.00;20.75;;;;;;;22.95;62.38;101557.72;4953674;28;19914;-93
2022/06/03 04:59:23;;;;;;;30.73;19.88;;;;;;;22.90;61.87;101544.06;4960023;28;20027;-89
2022/06/03 05:02:25;;;;;;;31.23;21.38;;;;;;;23.07;62.06;101572.47;4953694;28;20066;-93
2022/06/03 05:05:12;;;;;;;31.55;20.83;;;;;;;23.08;62.43;101571.50;4954142;28;20082;-92
2022/06/03 05:07:56;;;;;;;26.02;19.67;;;;;;;23.12;62.02;101572.94;4954145;28;20054;-93
2022/06/03 05:10:52;;;;;;;28.25;19.38;;;;;;;22.95;62.10;101552.44;4953922;28;20031;-90
2022/06/03 05:13:36;;;;;;;29.58;20.25;;;;;;;23.39;62.01;101576.75;4937793;29;20051;-88
2022/06/03 05:16:38;;;;;;;27.45;19.73;;;;;;;23.54;61.87;101582.50;4952716;28;20042;-89
2022/06/03 05:19:08;;;;;;;;;;;;;;;23.64;60.91;101586.84;4951456;29;20424;-86
2022/06/03 05:22:08;;;;;;;30.67;21.05;;;;;;;23.62;61.49;101588.81;4951916;29;19914;-89
2022/06/03 05:24:52;;;;;;;29.98;20.98;;;;;;;23.93;60.84;101586.88;4951789;29;20075;-90
2022/06/03 05:27:39;;;;;;;32.45;20.83;;;;;;;24.12;60.08;101577.28;4952686;29;20082;-86
2022/06/03 05:30:20;;;;;;;32.42;20.52;;;;;;;24.03;59.66;101557.81;4952295;28;20057;-87
2022/06/03 05:33:04;;;;;;;32.55;20.95;;;;;;;24.17;59.27;101588.28;4952733;28;20061;-84
2022/06/03 05:35:51;;;;;;;34.20;20.95;;;;;;;24.16;59.99;101592.72;4952259;28;20114;-87
2022/06/03 05:38:25;;;;;;;31.48;21.23;;;;;;;24.21;58.73;101555.31;4952513;28;20054;-86
2022/06/03 05:40:56;;;;;;;29.02;19.58;;;;;;;24.38;57.93;101581.03;4951316;29;20034;-87
2022/06/03 05:43:48;;;;;;;26.85;19.30;;;;;;;24.31;58.31;101561.44;4937285;28;20051;-90
2022/06/03 05:46:20;;;;;;;33.13;21.80;;;;;;;24.42;57.88;101560.44;4949883;29;20030;-92
2022/06/03 05:48:50;;;;;;;25.33;19.30;;;;;;;24.72;57.43;101573.47;4935259;29;20055;-92
2022/06/03 05:51:30;;;;;;;29.70;20.10;;;;;;;24.74;57.84;101571.50;4934127;29;20378;-93
2022/06/03 05:54:18;;;;;;;26.05;19.63;;;;;;;24.75;56.71;101577.63;4935445;29;20027;-90
2022/06/03 05:57:08;;;;;;;34.17;20.00;;;;;;;24.77;57.01;101576.50;4951837;29;20031;-89
2022/06/03 05:59:45;;;;;;;33.10;20.88;;;;;;;24.84;57.61;101585.53;4951958;29;20047;-91
2022/06/03 06:02:26;;;;;;;27.90;21.27;;;;;;;24.99;57.11;101590.38;4952153;29;20517;-89
2022/06/03 06:05:10;;;;;;;31.35;19.02;;;;;;;25.12;55.64;101580.28;4927318;29;20023;-90
2022/06/03 06:07:50;;;;;;;31.83;19.30;;;;;;;25.25;55.65;101575.47;4952405;28;20035;-89
2022/06/03 06:10:24;;;;;;;27.70;18.75;;;;;;;25.32;54.25;101565.16;4950995;29;20085;-93
2022/06/03 06:12:50;;;;;;;27.95;19.20;;;;;;;25.38;54.59;101570.69;4950073;29;20146;-92
2022/06/03 06:15:30;;;;;;;27.63;19.20;;;;;;;25.38;54.33;101568.03;4951293;29;20578;-93
2022/06/03 06:17:59;;;;;;;28.00;18.33;;;;;;;25.45;54.37;101577.03;4949245;29;20413;-88
2022/06/03 06:20:42;;;;;;;25.63;18.88;;;;;;;25.37;54.77;101569.03;4951773;28;20027;-88
2022/06/03 06:23:19;;;;;;;30.50;20.25;;;;;;;25.51;54.42;101577.44;4953595;29;20124;-91
2022/06/03 06:26:16;;;;;;;30.90;20.90;;;;;;;25.45;54.58;101561.16;4936091;29;20038;-90
2022/06/03 06:28:59;;;;;;;35.03;21.88;;;;;;;25.63;53.79;101578.88;4932550;29;20499;-92
2022/06/03 06:31:24;;;;;;;23.88;18.92;;;;;;;25.62;53.84;101578.06;4950415;29;20118;-93
2022/06/03 06:34:10;;;;;;;31.15;18.42;;;;;;;25.69;53.55;101579.13;4958473;29;20055;-89
2022/06/03 06:37:03;;;;;;;32.60;19.95;;;;;;;25.88;54.18;101578.19;4950237;29;20039;-90
2022/06/03 06:40:10;;;;;;;27.50;20.00;;;;;;;26.01;53.34;101583.94;4952196;28;20039;-93
2022/06/03 06:42:53;;;;;;;24.23;18.90;;;;;;;26.12;53.14;101580.22;4950260;29;20035;-88
2022/06/03 06:45:44;;;;;;;27.20;19.40;;;;;;;26.23;52.76;101577.31;4938211;28;20107;-89
2022/06/03 06:48:22;;;;;;;26.92;19.70;;;;;;;26.40;52.50;101580.94;4935309;29;20141;-89
2022/06/03 06:50:52;;;;;;;27.05;18.55;;;;;;;26.44;51.75;101579.66;4953381;29;20078;-90
2022/06/03 06:53:33;;;;;;;23.63;18.05;;;;;;;26.44;51.58;101573.50;4954935;29;20086;-90
2022/06/03 06:56:30;;;;;;;31.52;18.30;;;;;;;26.53;50.58;101584.03;4933412;29;20023;-92
2022/06/03 06:58:59;;;;;;;21.98;16.75;;;;;;;26.57;50.66;101573.94;4938823;29;20122;-89
2022/06/03 07:01:47;;;;;;;30.08;17.58;;;;;;;26.65;50.62;101581.13;4937739;29;20034;-87
2022/06/03 07:04:21;;;;;;;23.25;16.85;;;;;;;26.70;49.88;101569.03;4953561;29;20034;-92
2022/06/03 07:06:54;;;;;;;24.70;17.60;;;;;;;26.82;51.30;101566.94;4939395;29;20067;-90
2022/06/03 07:09:59;;;;;;;22.58;16.77;;;;;;;26.87;50.17;101570.78;4939146;29;20034;-92
2022/06/03 07:12:41;;;;;;;33.05;22.35;;;;;;;27.02;49.45;101572.84;4957826;28;20098;-91
2022/06/03 07:15:28;;;;;;;27.05;17.85;;;;;;;27.18;50.48;101578.25;4926171;29;20034;-91
2022/06/03 07:21:23;;;;;;;21.23;16.13;;;;;;;27.54;48.34;101586.84;4953479;29;20089;-93
2022/06/03 07:23:52;;;;;;;24.23;19.17;;;;;;;27.60;49.41;101582.69;4938177;29;20087;-91
2022/06/03 07:26:33;;;;;;;24.83;18.20;;;;;;;27.72;48.44;101581.41;4953253;29;20093;-87
2022/06/03 07:29:16;;;;;;;22.30;16.07;;;;;;;27.81;47.42;101580.44;4953392;29;20043;-84
2022/06/03 07:31:58;;;;;;;21.20;15.88;;;;;;;27.82;46.93;101575.94;4953338;29;20038;-87
2022/06/03 07:34:27;;;;;;;23.10;16.10;;;;;;;27.89;46.89;101569.81;4953364;29;20109;-87
2022/06/03 07:36:57;;;;;;;19.65;15.68;;;;;;;28.02;45.74;101590.56;4952328;29;20468;-88
2022/06/03 07:39:38;;;;;;;19.02;15.75;;;;;;;28.04;46.25;101577.97;4954520;29;20043;-90
2022/06/03 07:42:09;;;;;;;20.73;15.43;;;;;;;28.16;46.40;101589.94;4938193;29;20027;-87
2022/06/03 07:44:54;;;;;;;21.85;16.10;;;;;;;28.22;46.31;101583.94;4940087;28;20195;-90
2022/06/03 07:47:19;;;;;;;21.42;15.25;;;;;;;28.32;45.58;101577.63;4952706;29;20039;-89
2022/06/03 07:49:53;;;;;;;18.30;16.13;;;;;;;28.36;45.62;101561.19;4953942;29;20042;-93
2022/06/03 07:52:32;;;;;;;23.80;15.13;;;;;;;28.58;45.69;101576.44;4937987;29;20031;-89
2022/06/03 07:54:58;;;;;;;19.98;14.57;;;;;;;28.64;44.63;101561.63;4952977;29;20493;-88
2022/06/03 07:57:27;;;;;;;22.00;15.52;;;;;;;28.76;44.89;101565.56;4936725;29;20042;-87
2022/06/03 08:00:00;;;;;;;20.38;16.10;;;;;;;29.04;44.95;101583.81;4936735;29;20493;-90
2022/06/03 08:02:26;;;;;;;25.33;15.38;;;;;;;29.14;44.12;101590.59;4952163;29;20158;-90
2022/06/03 08:05:11;;;;;;;22.17;16.02;;;;;;;29.07;43.25;101589.63;4936145;29;20110;-88
2022/06/03 08:13:13;;;;;;;20.23;15.13;;;;;;;29.29;43.30;101593.34;4952791;29;20045;-89
2022/06/03 08:15:41;;;;;;;28.50;15.95;;;;;;;29.35;44.43;101602.50;4952991;29;20032;-93
2022/06/03 08:18:07;;;;;;;19.23;15.32;;;;;;;29.48;44.04;101602.78;4937896;29;20031;-90
2022/06/03 08:20:34;;;;;;;18.80;14.77;;;;;;;29.53;43.40;101610.28;4920154;29;20462;-90
2022/06/03 08:23:01;;;;;;;18.80;15.13;;;;;;;29.39;43.01;101604.63;4920603;29;20020;-91
2022/06/03 08:25:28;;;;;;;20.98;14.65;;;;;;;29.29;43.25;101606.66;4935966;29;20512;-92
2022/06/03 08:27:55;;;;;;;19.63;14.68;;;;;;;29.39;43.42;101609.94;4920895;29;20412;-90
2022/06/03 08:30:23;;;;;;;18.05;15.07;;;;;;;29.38;43.11;101610.97;4935177;29;20035;-91
2022/06/03 08:33:04;;;;;;;17.35;15.48;;;;;;;29.27;44.61;101615.84;4920740;29;20191;-90
2022/06/03 08:35:32;;;;;;;24.42;15.82;;;;;;;29.19;45.32;101619.38;4912595;29;20027;-87
2022/06/03 08:38:22;;;;;;;21.02;16.00;;;;;;;29.31;45.79;101620.69;4928640;29;20075;-93
2022/06/03 08:41:02;;;;;;;19.85;16.23;;;;;;;29.43;45.19;101610.44;4936021;29;20031;-89
2022/06/03 08:44:06;;;;;;;21.20;15.35;;;;;;;29.57;44.51;101623.06;4954259;29;20056;-91
2022/06/03 08:46:37;;;;;;;21.77;17.23;;;;;;;29.37;44.73;101625.28;4951733;29;20058;-90
2022/06/03 08:49:06;;;;;;;22.00;16.05;;;;;;;29.40;44.93;101618.81;4921073;29;20034;-86
2022/06/03 08:51:36;;;;;;;22.13;16.48;;;;;;;29.43;44.01;101615.78;4934983;29;20031;-89
2022/06/03 08:54:08;;;;;;;22.02;15.80;;;;;;;29.68;43.58;101624.50;4935672;29;20031;-86
2022/06/03 08:56:38;;;;;;;19.13;14.73;;;;;;;29.61;42.66;101629.72;4934633;29;20034;-87
2022/06/03 08:59:19;;;;;;;20.92;15.30;;;;;;;29.48;42.90;101612.59;4919278;29;20039;-88
2022/06/03 09:01:51;;;;;;;20.15;16.70;;;;;;;29.70;42.44;101631.34;4935021;29;20069;-89
2022/06/03 09:04:30;;;;;;;19.08;15.43;;;;;;;29.85;42.18;101627.91;4935225;29;20059;-87
2022/06/03 09:07:03;;;;;;;18.77;13.55;;;;;;;30.04;40.11;101634.59;4935736;29;20031;-87
2022/06/03 09:09:53;;;;;;;17.45;13.23;;;;;;;30.23;39.92;101647.50;4937840;29;20035;-91
2022/06/03 09:12:38;;;;;;;15.48;12.75;;;;;;;30.27;39.79;101646.09;4934276;29;20043;-88
2022/06/03 09:15:10;;;;;;;18.70;13.38;;;;;;;30.23;40.01;101642.16;4950955;29;20035;-90
2022/06/03 09:17:49;;;;;;;18.58;13.43;;;;;;;30.18;40.46;101631.16;4936469;29;20039;-90
2022/06/03 09:20:17;;;;;;;17.10;12.95;;;;;;;30.30;40.58;101628.94;4952332;29;20035;-92
2022/06/03 09:22:46;;;;;;;19.35;13.40;;;;;;;30.38;40.51;101635.00;4938558;28;20071;-93
2022/06/03 09:25:13;;;;;;;17.02;13.55;;;;;;;30.41;40.27;101648.00;4942202;29;20038;-92
2022/06/03 09:27:39;;;;;;;17.73;13.70;;;;;;;30.50;40.42;101630.91;4919359;29;20519;-93
2022/06/03 09:30:05;;;;;;;16.38;13.07;;;;;;;30.56;39.57;101640.84;4935239;29;20393;-89
2022/06/03 09:32:35;;;;;;;16.10;12.63;;;;;;;30.59;39.22;101638.84;4944567;29;20187;-85
2022/06/03 09:35:02;;;;;;;19.10;12.23;;;;;;;30.64;39.26;101625.75;4936571;29;20110;-87
2022/06/03 09:37:30;;;;;;;15.77;12.70;;;;;;;30.76;39.13;101624.31;4936338;29;20114;-90
2022/06/03 09:39:57;;;;;;;22.67;13.88;;;;;;;30.71;40.48;101626.72;4955755;29;20027;-90
2022/06/03 09:42:23;;;;;;;20.90;14.20;;;;;;;30.83;41.54;101630.59;4924976;28;20046;-87
2022/06/03 09:44:49;;;;;;;19.15;14.18;;;;;;;30.95;40.33;101633.63;4944717;28;20472;-88
2022/06/03 09:47:18;;;;;;;15.93;13.18;;;;;;;30.89;39.84;101632.53;4945552;28;20046;-90
2022/06/03 09:49:44;;;;;;;20.00;13.90;;;;;;;30.90;40.16;101623.50;4945418;28;20057;-91
2022/06/03 09:52:12;;;;;;;18.85;13.32;;;;;;;30.83;39.52;101609.22;4957587;28;20086;-86
2022/06/03 09:54:39;;;;;;;17.92;12.77;;;;;;;30.81;39.97;101617.44;4950185;29;20043;-86
2022/06/03 09:57:33;;;;;;;18.02;12.45;;;;;;;31.01;40.10;101631.06;4935346;29;20090;-93
2022/06/03 10:00:22;;;;;;;17.95;12.32;;;;;;;31.32;39.65;101638.88;4935462;28;20027;-86
2022/06/03 10:02:48;;;;;;;18.30;12.48;;;;;;;31.42;39.66;101629.75;4933417;29;20039;-85
2022/06/03 10:05:17;;;;;;;19.73;12.00;;;;;;;31.36;38.94;101608.06;4932776;29;20489;-86
2022/06/03 10:07:47;;;;;;;16.55;12.07;;;;;;;31.61;38.57;101642.50;4941824;28;20053;-87
2022/06/03 10:13:00;;;;;;;19.02;16.23;;;;;;;31.52;39.27;101628.44;4938248;29;20038;-87
2022/06/03 10:15:40;;;;;;;31.33;25.33;;;;;;;31.58;39.29;101625.00;4935128;29;20050;-89
2022/06/03 10:18:18;;;;;;;18.05;12.25;;;;;;;31.75;38.22;101644.34;4955797;28;20052;-89
2022/06/03 10:20:44;;;;;;;17.58;12.02;;;;;;;31.81;38.02;101635.56;4950409;29;20032;-83
2022/06/03 10:23:10;;;;;;;20.63;14.82;;;;;;;31.85;37.87;101631.47;4947112;28;20079;-93
2022/06/03 10:25:37;;;;;;;13.48;11.43;;;;;;;31.97;37.80;101637.16;4918906;29;20031;-89
2022/06/03 10:28:04;;;;;;;17.15;11.63;;;;;;;31.97;37.54;101629.16;4950067;29;20031;-93
2022/06/03 10:30:31;;;;;;;16.40;11.65;;;;;;;32.20;37.85;101632.44;4930172;29;20027;-89
2022/06/03 10:32:56;;;;;;;15.50;11.38;;;;;;;32.28;37.64;101622.63;4933977;29;20118;-90
2022/06/03 10:35:27;;;;;;;20.70;12.18;;;;;;;32.41;36.97;101628.09;4933992;29;20035;-89
2022/06/03 10:37:57;;;;;;;14.43;11.30;;;;;;;32.61;37.27;101615.66;4929154;29;20027;-86
2022/06/03 10:40:26;;;;;;;14.13;10.68;;;;;;;32.64;36.91;101617.94;4915892;29;20087;-89
2022/06/03 10:42:56;;;;;;;15.80;11.10;;;;;;;32.49;36.20;101606.53;4935390;28;20544;-91
2022/06/03 10:45:29;;;;;;;13.80;10.93;;;;;;;32.68;36.22;101618.41;4941008;28;20113;-87
2022/06/03 10:47:55;;;;;;;18.58;15.48;;;;;;;32.88;36.25;101613.19;4943402;28;20047;-87
2022/06/03 10:50:28;;;;;;;14.43;12.82;;;;;;;33.04;36.42;101610.19;4958767;28;20042;-87
2022/06/03 11:01:41;;;;;;;12.20;10.35;;;;;;;32.63;36.03;101608.25;4938295;29;20101;-85
2022/06/03 11:04:06;;;;;;;15.55;10.27;;;;;;;32.71;36.29;101605.41;4917847;29;20031;-89
2022/06/03 11:06:37;;;;;;;16.60;10.60;;;;;;;32.54;36.44;101574.59;4922762;28;20061;-85
2022/06/03 11:09:06;;;;;;;16.02;11.02;;;;;;;32.72;36.82;101590.19;4934541;29;20038;-86
2022/06/03 11:11:31;;;;;;;15.98;10.88;;;;;;;32.87;37.52;101608.84;4931139;29;20046;-86
2022/06/03 11:13:57;;;;;;;17.92;10.88;;;;;;;33.07;37.35;101588.31;4931554;29;20030;-85
2022/06/03 11:16:23;;;;;;;15.40;10.57;;;;;;;33.14;35.94;101577.59;4918104;29;20448;-85
2022/06/03 11:18:49;;;;;;;15.70;10.15;;;;;;;33.12;35.06;101580.50;4931539;29;20031;-86
2022/06/03 11:21:20;;;;;;;17.83;10.32;;;;;;;33.02;35.37;101580.88;4920472;29;20102;-87
2022/06/03 11:23:46;;;;;;;17.65;10.15;;;;;;;33.05;35.16;101571.63;4902017;29;20382;-87
2022/06/03 11:26:11;;;;;;;12.43;10.30;;;;;;;33.22;35.10;101585.47;4924773;29;20043;-86
2022/06/03 11:28:44;;;;;;;14.77;10.45;;;;;;;33.24;35.97;101562.81;4911481;29;20402;-85
2022/06/03 11:31:25;;;;;;;14.25;10.40;;;;;;;33.31;35.37;101579.75;4939289;29;20035;-85
2022/06/03 11:33:57;;;;;;;14.25;9.77;;;;;;;33.29;35.55;101567.56;4933213;29;20081;-86
2022/06/03 11:36:45;;;;;;;13.75;10.23;;;;;;;33.07;36.29;101570.38;4909693;29;20031;-90
2022/06/03 11:39:28;;;;;;;15.98;10.23;;;;;;;33.02;36.07;101555.91;4934811;29;20039;-87
2022/06/03 11:42:00;;;;;;;11.52;9.95;;;;;;;33.00;35.09;101560.66;4952921;28;20051;-85
2022/06/03 11:44:34;;;;;;;14.93;10.38;;;;;;;33.05;35.20;101542.97;4937358;29;20063;-92
2022/06/03 11:47:04;;;;;;;12.05;9.50;;;;;;;33.08;35.08;101542.56;4955301;29;20039;-94
2022/06/03 11:49:29;;;;;;;15.50;9.65;;;;;;;33.09;35.09;101546.06;4928005;29;20089;-92
2022/06/03 11:51:55;;;;;;;13.82;10.20;;;;;;;33.12;35.04;101545.66;4955657;29;20583;-90
2022/06/03 11:54:22;;;;;;;17.65;10.70;;;;;;;33.29;35.73;101535.38;4952694;29;20492;-94
2022/06/03 11:56:48;;;;;;;15.75;10.45;;;;;;;33.36;35.59;101544.31;4938085;29;20027;-88
2022/06/03 11:59:44;;;;;;;14.90;10.10;;;;;;;33.21;35.54;101536.41;4933299;29;20413;-87
2022/06/03 12:02:16;;;;;;;13.88;10.55;;;;;;;33.23;36.08;101553.09;4920876;29;20034;-84
2022/06/03 12:05:02;;;;;;;18.88;10.80;;;;;;;33.26;36.45;101551.88;4955683;28;20087;-85
2022/06/03 12:07:49;;;;;;;17.65;9.93;;;;;;;33.00;35.53;101558.81;4945646;28;20046;-86
2022/06/03 12:10:21;;;;;;;11.20;10.00;;;;;;;32.68;35.03;101521.94;4961925;28;20059;-87
2022/06/03 12:15:35;;;;;;;15.27;10.35;;;;;;;32.84;35.28;101558.31;4932057;29;20090;-84
2022/06/03 12:18:32;;;;;;;18.05;10.20;;;;;;;32.73;35.27;101543.59;4944660;28;20070;-86
2022/06/03 12:21:03;;;;;;;15.27;10.40;;;;;;;32.78;35.06;101539.31;4930096;28;20475;-87
2022/06/03 12:23:29;;;;;;;14.43;10.23;;;;;;;32.95;35.01;101547.88;4934018;29;20032;-85
2022/06/03 12:25:57;;;;;;;17.73;10.90;;;;;;;32.98;35.48;101552.00;4933441;29;20032;-85
2022/06/03 12:28:37;;;;;;;14.93;10.35;;;;;;;33.14;35.72;101554.34;4950261;29;20039;-85
2022/06/03 12:31:19;;;;;;;15.45;10.65;;;;;;;33.04;36.12;101554.72;4952947;28;20493;-84